Ruby, Louisiana
Current Conditions -  °F | °C
As of 11:57 PM on Tuesday 21 Oct 2014 (Local Time) from KESF Reporting Station
Haze Haze  
Wind Chill: 57°   Ceiling: Unl
Heat Index: 57°   Visibility: 1.7mi
Dew Point: 57°   Wind: 0mph
Humidity: 100%   Direction: NA
Pressure: 30.06"   Gusts: NA
Location:  31.19°N, 92.25°W
Report Text: KESF 220457Z AUTO 00000KT 1 3/4SM BR SCT003 14/14 A3006 RMK AO2 T01390139
Loading
Personal Weather Stations






























Interactive Weather Map
Tropical Storm Tracking
New forecast layout! Learn more

10-Day Weather Forecast

Advertisements
Track Severe Weather on mobile